Pagrindinis puslapis
METAR-TAF:

METAR-TAF

Oro uostai :

Kalmaras, Švedija

platuma: 56-44N, ilguma: 016-18E, Aukštis: 16 m

Dabartinis oras

Ataskaita buvo paskelbta 34 minutes, ne 20:20 UTC
Vėjas 4 kt iš Pietryčių
Temperatūra 12°C
Drėgmė 88%
Slėgis 1012 hPa
Matomumas 10 km arba daugiau

METAR: ESMQ 162020Z AUTO 13004KT 9999 NCD 12/10 Q1012

Laikas: 22:54 (20:54 UTC)

Prognozė

Ataskaita buvo paskelbta 6 valandos ir 24 minutes, ne 14:30 UTC
Prognozė galioja nuo 16 metu 15 UTC su 16 metu 19 UTC
Vėjas 10 kt iš Pietų
Matomumas 10 km arba daugiau
nėra debesų žemiau 1500 m ir nėra kamuolinių lietaus debesų

TAF: ESMQ 161430Z 1615/1619 17010KT CAVOK

Orai ataskaitas ir orų prognozės (METAR, TAF).

turimą stotys yra geltonos ir raudonos taškus žemėlapyje.

Perkelti pele per norėdami pamatyti stoties vardą.

Tada spustelėkite, norėdami matyti oro stebėjimo ir prognozės.

Norėdami pakeisti žemėlapį: spustelėkite ant žalios mygtukų su juodo kryžiaus žemyn,; žalią mygtuką su brūkšneliu, jei norite nutolinti; arba žalių rodyklių gretimoms žemėlapius.


METAR-TAF: